Time;durP1;ratioP1;P1;durP2;ratioP2;P2;SDS_P1;SDS_P2;PMS_P1;PMS_P2;Temp;Humidity;BMP_temperature;BMP_pressure;BME280_temperature;BME280_humidity;BME280_pressure;Samples;Min_cycle;Max_cycle;Signal;HPM_P1;HPM_P2
2022/04/18 00:01:19;;;;;;;17.42;8.20;;;8.20;99.90;;;;;;5092071;28;20608;-62
2022/04/18 00:03:45;;;;;;;17.33;9.10;;;8.20;99.90;;;;;;5101735;28;20031;-61
2022/04/18 00:06:10;;;;;;;17.30;8.20;;;8.10;99.90;;;;;;5097988;28;20032;-61
2022/04/18 00:08:36;;;;;;;20.77;10.63;;;8.20;99.90;;;;;;5091295;28;20030;-62
2022/04/18 00:11:02;;;;;;;26.80;12.60;;;8.40;99.90;;;;;;5109383;28;20107;-61
2022/04/18 00:13:28;;;;;;;25.67;14.00;;;8.60;99.90;;;;;;5094797;28;20143;-61
2022/04/18 00:15:54;;;;;;;28.77;14.20;;;8.90;99.90;;;;;;5111112;28;20057;-61
2022/04/18 00:18:20;;;;;;;33.08;15.45;;;9.00;99.90;;;;;;5098025;28;20053;-62
2022/04/18 00:20:45;;;;;;;39.05;16.38;;;9.10;99.90;;;;;;5105695;28;20073;-63
2022/04/18 00:23:11;;;;;;;33.47;17.05;;;9.00;99.90;;;;;;5112675;28;20400;-61
2022/04/18 00:25:37;;;;;;;31.85;18.10;;;9.10;99.90;;;;;;5113165;28;20418;-61
2022/04/18 00:28:02;;;;;;;33.05;18.15;;;9.10;99.90;;;;;;5115011;28;20040;-61
2022/04/18 00:30:28;;;;;;;35.65;19.30;;;9.20;99.90;;;;;;5112984;28;20024;-61
2022/04/18 00:32:54;;;;;;;41.95;20.30;;;9.20;99.90;;;;;;5104677;28;20487;-62
2022/04/18 00:35:19;;;;;;;42.75;21.90;;;9.30;99.90;;;;;;5106612;28;20024;-61
2022/04/18 00:37:45;;;;;;;44.25;24.20;;;9.40;99.90;;;;;;5114890;28;20019;-62
2022/04/18 00:40:12;;;;;;;43.38;22.77;;;9.40;99.90;;;;;;5112665;28;20115;-61
2022/04/18 00:42:42;;;;;;;47.42;25.40;;;9.30;99.90;;;;;;5103473;28;20028;-61
2022/04/18 00:45:08;;;;;;;51.65;26.30;;;9.40;99.90;;;;;;5095762;28;20382;-61
2022/04/18 00:47:34;;;;;;;48.33;25.65;;;9.40;99.90;;;;;;5094237;28;20020;-61
2022/04/18 00:50:00;;;;;;;50.17;25.73;;;9.30;99.90;;;;;;5108378;28;20028;-62
2022/04/18 00:52:26;;;;;;;54.65;27.55;;;9.30;99.90;;;;;;5096169;28;20032;-61
2022/04/18 00:54:54;;;;;;;44.35;24.65;;;9.30;99.90;;;;;;5096476;28;20039;-62
2022/04/18 00:57:23;;;;;;;46.33;23.05;;;9.20;99.90;;;;;;5113864;27;20369;-61
2022/04/18 00:59:49;;;;;;;43.63;23.65;;;9.00;99.90;;;;;;5114085;28;20020;-62
2022/04/18 01:02:14;;;;;;;51.95;23.77;;;8.80;99.90;;;;;;5114041;28;20031;-61
2022/04/18 01:04:40;;;;;;;47.75;24.83;;;8.60;99.90;;;;;;5106646;28;20031;-61
2022/04/18 01:07:06;;;;;;;42.20;22.73;;;8.40;99.90;;;;;;5111281;28;20027;-62
2022/04/18 01:09:33;;;;;;;47.17;25.05;;;8.30;99.90;;;;;;5114320;28;20035;-62
2022/04/18 01:11:59;;;;;;;53.75;26.63;;;8.30;99.90;;;;;;5113460;28;20116;-62
2022/04/18 01:14:24;;;;;;;53.72;26.88;;;8.30;99.90;;;;;;5111770;28;20101;-62
2022/04/18 01:16:50;;;;;;;58.42;29.02;;;8.30;99.90;;;;;;5113323;28;20145;-62
2022/04/18 01:19:16;;;;;;;61.08;29.88;;;8.30;99.90;;;;;;5113985;28;20023;-62
2022/04/18 01:21:42;;;;;;;56.20;27.15;;;8.20;99.90;;;;;;5113199;28;20377;-62
2022/04/18 01:28:58;;;;;;;58.60;26.90;;;8.20;99.90;;;;;;5113653;28;20028;-62
2022/04/18 01:29:39;;;;;;;52.75;27.70;;;8.20;99.90;;;;;;5097605;28;20509;-61
2022/04/18 01:32:05;;;;;;;59.97;29.35;;;8.10;99.90;;;;;;5113377;28;20032;-62
2022/04/18 01:34:31;;;;;;;63.78;30.60;;;8.10;99.90;;;;;;5112994;28;20482;-62
2022/04/18 01:36:56;;;;;;;68.22;31.95;;;8.10;99.90;;;;;;5105834;28;20024;-63
2022/04/18 01:39:22;;;;;;;64.93;31.05;;;8.10;99.90;;;;;;5093386;28;20470;-61
2022/04/18 01:41:48;;;;;;;62.75;31.05;;;8.10;99.90;;;;;;5104699;28;20043;-62
2022/04/18 01:44:13;;;;;;;62.38;29.80;;;8.10;99.90;;;;;;5100778;28;20024;-62
2022/04/18 01:46:39;;;;;;;67.45;31.08;;;8.00;99.90;;;;;;5107450;28;20074;-61
2022/04/18 01:49:04;;;;;;;64.43;29.98;;;8.00;99.90;;;;;;5093013;28;20099;-61
2022/04/18 01:51:30;;;;;;;76.50;32.60;;;8.00;99.90;;;;;;5110114;28;20555;-61
2022/04/18 01:53:56;;;;;;;80.97;30.88;;;7.90;99.90;;;;;;5110036;28;20024;-62
2022/04/18 01:56:21;;;;;;;95.50;34.65;;;8.00;99.90;;;;;;5101716;28;20031;-62
2022/04/18 01:58:48;;;;;;;93.00;33.00;;;8.00;99.90;;;;;;5102196;28;20031;-61
2022/04/18 02:01:15;;;;;;;74.57;31.35;;;8.10;99.90;;;;;;5109554;28;20032;-61
2022/04/18 02:03:43;;;;;;;97.13;32.65;;;8.20;99.90;;;;;;5110764;28;20031;-61
2022/04/18 02:06:10;;;;;;;94.28;34.00;;;8.10;99.90;;;;;;5098235;28;20114;-62
2022/04/18 02:08:36;;;;;;;77.50;30.25;;;8.10;99.90;;;;;;5095842;28;20028;-61
2022/04/18 02:11:03;;;;;;;80.03;30.75;;;8.10;99.90;;;;;;5105704;28;20391;-61
2022/04/18 02:13:28;;;;;;;78.82;29.88;;;8.10;99.90;;;;;;5112813;28;20085;-61
2022/04/18 02:15:57;;;;;;;77.00;29.58;;;8.10;99.90;;;;;;5099197;28;20082;-62
2022/04/18 02:18:23;;;;;;;80.80;28.52;;;8.20;99.90;;;;;;5107177;28;20099;-61
2022/04/18 02:20:49;;;;;;;80.18;29.13;;;8.40;99.90;;;;;;5112037;28;20024;-61
2022/04/18 02:23:15;;;;;;;75.88;29.15;;;8.50;99.90;;;;;;5111892;28;20039;-61
2022/04/18 02:25:40;;;;;;;79.45;30.52;;;8.60;99.90;;;;;;5112757;28;20462;-61
2022/04/18 02:28:06;;;;;;;68.70;28.30;;;8.70;99.90;;;;;;5101386;28;20031;-63
2022/04/18 02:30:32;;;;;;;72.60;29.48;;;8.70;99.90;;;;;;5098816;28;20118;-62
2022/04/18 02:32:59;;;;;;;75.57;28.40;;;8.80;99.90;;;;;;5098986;28;20024;-62
2022/04/18 02:35:25;;;;;;;68.50;28.58;;;8.80;99.90;;;;;;5105719;28;20027;-62
2022/04/18 02:37:52;;;;;;;68.93;28.20;;;8.80;99.90;;;;;;5095565;28;20509;-62
2022/04/18 02:40:19;;;;;;;70.25;28.05;;;8.70;99.90;;;;;;5092269;28;20024;-62
2022/04/18 02:42:45;;;;;;;74.60;27.92;;;8.60;99.90;;;;;;5097467;28;20032;-61
2022/04/18 02:45:12;;;;;;;69.88;27.38;;;8.60;99.90;;;;;;5092963;28;20508;-61
2022/04/18 02:47:38;;;;;;;66.65;24.58;;;8.50;99.90;;;;;;5100756;28;20111;-61
2022/04/18 02:50:06;;;;;;;65.80;26.90;;;8.40;99.90;;;;;;5110512;28;20028;-62
2022/04/18 02:52:31;;;;;;;66.32;26.42;;;8.40;99.90;;;;;;5104541;28;20539;-61
2022/04/18 02:54:57;;;;;;;70.32;27.10;;;8.30;99.90;;;;;;5098851;28;20107;-62
2022/04/18 02:57:23;;;;;;;79.65;27.23;;;8.20;99.90;;;;;;5099525;28;20055;-62
2022/04/18 02:59:48;;;;;;;68.55;25.25;;;8.20;99.90;;;;;;5112285;28;20156;-61
2022/04/18 03:02:14;;;;;;;77.45;27.05;;;8.00;99.90;;;;;;5109084;28;20024;-61
2022/04/18 03:04:40;;;;;;;67.75;24.38;;;7.90;99.90;;;;;;5099976;28;20092;-62
2022/04/18 03:07:05;;;;;;;72.10;25.58;;;7.80;99.90;;;;;;5109214;28;20037;-62
2022/04/18 03:09:31;;;;;;;69.97;25.85;;;7.70;99.90;;;;;;5110767;28;20040;-62
2022/04/18 03:11:57;;;;;;;62.70;23.52;;;7.70;99.90;;;;;;5108970;28;20053;-61
2022/04/18 03:14:23;;;;;;;70.28;25.95;;;7.70;99.90;;;;;;5108621;28;20071;-62
2022/04/18 03:16:49;;;;;;;69.15;24.88;;;7.60;99.90;;;;;;5110136;28;20048;-62
2022/04/18 03:19:15;;;;;;;68.00;24.95;;;7.50;99.90;;;;;;5105474;28;20110;-62
2022/04/18 03:21:41;;;;;;;76.13;26.42;;;7.40;99.90;;;;;;5111084;28;20027;-63
2022/04/18 03:24:07;;;;;;;69.53;25.75;;;7.30;99.90;;;;;;5105940;28;20391;-62
2022/04/18 03:26:33;;;;;;;69.95;26.70;;;7.30;99.90;;;;;;5106595;28;20020;-61
2022/04/18 03:28:58;;;;;;;63.17;24.25;;;7.20;99.90;;;;;;5101253;28;20460;-61
2022/04/18 03:31:24;;;;;;;78.60;24.85;;;7.10;99.90;;;;;;5105563;28;20023;-61
2022/04/18 03:33:50;;;;;;;74.57;25.02;;;7.10;99.90;;;;;;5093606;28;20036;-61
2022/04/18 03:41:43;;;;;;;102.80;29.20;;;7.10;99.90;;;;;;5111047;28;20130;-61
2022/04/18 03:44:09;;;;;;;119.35;31.85;;;7.00;99.90;;;;;;5108110;28;20497;-62
2022/04/18 03:46:35;;;;;;;89.35;28.50;;;6.90;99.90;;;;;;5111957;28;20078;-62
2022/04/18 03:49:01;;;;;;;123.68;32.53;;;6.90;99.90;;;;;;5114181;28;20039;-61
2022/04/18 03:51:26;;;;;;;132.88;33.42;;;6.80;99.90;;;;;;5099030;28;20036;-61
2022/04/18 03:53:52;;;;;;;120.25;31.67;;;6.80;99.90;;;;;;5110714;28;20024;-61
2022/04/18 03:56:18;;;;;;;97.47;30.55;;;6.80;99.90;;;;;;5112836;28;20061;-61
2022/04/18 03:58:43;;;;;;;104.13;30.25;;;6.80;99.90;;;;;;5113919;28;20031;-61
2022/04/18 04:01:09;;;;;;;142.63;34.78;;;6.70;99.90;;;;;;5111479;28;20104;-61
2022/04/18 04:03:35;;;;;;;124.07;35.33;;;6.70;99.90;;;;;;5107739;28;20028;-62
2022/04/18 04:06:01;;;;;;;96.18;28.80;;;6.70;99.90;;;;;;5097809;28;20058;-62
2022/04/18 04:08:28;;;;;;;160.77;36.60;;;6.70;99.90;;;;;;5106684;28;20028;-62
2022/04/18 04:10:54;;;;;;;121.47;32.00;;;6.60;99.90;;;;;;5101654;28;20035;-62
2022/04/18 04:13:20;;;;;;;164.52;36.28;;;6.60;99.90;;;;;;5106412;28;20058;-61
2022/04/18 04:15:46;;;;;;;186.52;38.20;;;6.60;99.90;;;;;;5113819;28;20422;-62
2022/04/18 04:18:11;;;;;;;151.32;37.90;;;6.60;99.90;;;;;;5115128;28;20034;-61
2022/04/18 04:20:37;;;;;;;155.48;35.78;;;6.60;99.90;;;;;;5105029;27;20024;-62
2022/04/18 04:23:03;;;;;;;144.55;33.78;;;6.60;99.90;;;;;;5113320;28;20027;-62
2022/04/18 04:25:29;;;;;;;201.13;38.42;;;6.60;99.90;;;;;;5109189;28;20472;-62
2022/04/18 04:27:55;;;;;;;210.70;43.65;;;6.50;99.90;;;;;;5097320;28;20112;-62
2022/04/18 04:30:21;;;;;;;208.77;42.78;;;6.60;99.90;;;;;;5103560;28;20498;-61
2022/04/18 04:32:48;;;;;;;181.52;39.55;;;6.70;99.90;;;;;;5098066;28;20104;-61
2022/04/18 04:35:14;;;;;;;187.10;42.03;;;6.70;99.90;;;;;;5106082;28;20047;-61
2022/04/18 04:37:40;;;;;;;202.95;42.00;;;6.70;99.90;;;;;;5108234;28;20486;-61
2022/04/18 04:40:06;;;;;;;193.45;44.08;;;6.80;99.90;;;;;;5101010;28;20027;-61
2022/04/18 04:42:32;;;;;;;188.48;39.72;;;6.80;99.90;;;;;;5103871;28;20042;-61
2022/04/18 04:44:57;;;;;;;175.50;38.22;;;6.90;99.90;;;;;;5097140;28;20032;-61
2022/04/18 04:47:23;;;;;;;176.93;40.13;;;7.00;99.90;;;;;;5102584;28;20066;-61
2022/04/18 04:49:49;;;;;;;183.80;40.83;;;7.10;99.90;;;;;;5098517;28;20422;-62
2022/04/18 04:52:15;;;;;;;145.55;37.17;;;7.10;99.90;;;;;;5103849;28;20136;-61
2022/04/18 04:54:40;;;;;;;156.35;35.90;;;7.20;99.90;;;;;;5099747;28;20035;-61
2022/04/18 04:57:06;;;;;;;144.88;36.00;;;7.20;99.90;;;;;;5099272;28;20031;-62
2022/04/18 04:59:31;;;;;;;114.40;31.52;;;7.30;99.90;;;;;;5112448;28;20043;-62
2022/04/18 05:01:57;;;;;;;111.18;32.47;;;7.20;99.90;;;;;;5111060;28;20065;-61
2022/04/18 05:04:25;;;;;;;93.63;29.02;;;7.20;99.90;;;;;;5096898;28;20065;-61
2022/04/18 05:06:51;;;;;;;;;;;7.00;99.90;;;;;;5094868;28;20063;-61
2022/04/18 05:09:17;;;;;;;83.63;27.45;;;6.90;99.90;;;;;;5112839;28;20306;-62
2022/04/18 05:11:42;;;;;;;88.55;26.75;;;6.70;99.90;;;;;;5101286;27;20043;-62
2022/04/18 05:14:08;;;;;;;127.88;33.10;;;6.60;99.90;;;;;;5104348;27;20044;-62
2022/04/18 05:16:33;;;;;;;261.08;37.38;;;6.50;99.90;;;;;;5113724;28;20055;-61
2022/04/18 05:18:59;;;;;;;134.52;33.65;;;6.50;99.90;;;;;;5095142;28;20107;-61
2022/04/18 05:21:25;;;;;;;177.05;36.42;;;6.40;99.90;;;;;;5097863;28;20032;-62
2022/04/18 05:23:50;;;;;;;124.03;31.95;;;6.40;99.90;;;;;;5113068;28;20102;-61
2022/04/18 05:26:16;;;;;;;109.38;29.80;;;6.40;99.90;;;;;;5101718;28;20059;-61
2022/04/18 05:28:42;;;;;;;90.43;30.23;;;6.40;99.90;;;;;;5097693;28;20020;-62
2022/04/18 05:31:08;;;;;;;118.40;31.73;;;6.40;99.90;;;;;;5106244;28;20028;-61
2022/04/18 05:33:33;;;;;;;97.60;28.75;;;6.50;99.90;;;;;;5099460;28;20361;-61
2022/04/18 05:35:59;;;;;;;146.13;32.60;;;6.50;99.90;;;;;;5106514;28;20024;-62
2022/04/18 05:38:25;;;;;;;145.45;35.17;;;6.60;99.90;;;;;;5112968;28;20505;-61
2022/04/18 05:40:51;;;;;;;163.88;36.22;;;6.60;99.90;;;;;;5106220;28;20097;-61
2022/04/18 05:43:17;;;;;;;158.30;37.35;;;6.70;99.90;;;;;;5106385;28;20086;-62
2022/04/18 05:45:43;;;;;;;187.20;39.08;;;6.80;99.90;;;;;;5111989;28;20051;-61
2022/04/18 05:48:09;;;;;;;223.65;40.80;;;6.90;99.90;;;;;;5109336;28;20088;-61
2022/04/18 05:50:34;;;;;;;178.98;38.63;;;7.00;99.90;;;;;;5113417;28;20028;-61
2022/04/18 05:53:00;;;;;;;152.50;36.30;;;7.00;99.90;;;;;;5110339;28;20475;-61
2022/04/18 05:55:26;;;;;;;156.23;37.40;;;7.10;99.90;;;;;;5111413;28;20016;-62
2022/04/18 05:57:52;;;;;;;154.15;37.17;;;7.20;99.90;;;;;;5102226;28;20054;-61
2022/04/18 06:00:19;;;;;;;108.32;30.85;;;7.20;99.90;;;;;;5104542;28;20100;-61
2022/04/18 06:02:45;;;;;;;117.03;33.60;;;7.30;99.90;;;;;;5111132;28;20020;-62
2022/04/18 06:05:11;;;;;;;204.63;39.63;;;7.30;99.90;;;;;;5110497;28;20380;-61
2022/04/18 06:07:38;;;;;;;143.88;34.67;;;7.40;99.90;;;;;;5098677;28;20019;-62
2022/04/18 06:10:05;;;;;;;111.63;32.70;;;7.50;99.90;;;;;;5112804;28;20027;-61
2022/04/18 06:12:31;;;;;;;89.72;28.35;;;7.60;99.90;;;;;;5103925;28;20095;-61
2022/04/18 06:14:56;;;;;;;92.75;28.60;;;7.60;99.90;;;;;;5103492;28;20493;-62
2022/04/18 06:17:22;;;;;;;93.85;28.38;;;7.70;99.90;;;;;;5093416;28;20071;-61
2022/04/18 06:19:49;;;;;;;97.10;31.50;;;7.80;99.90;;;;;;5100969;28;20028;-61
2022/04/18 06:22:16;;;;;;;102.18;30.13;;;7.90;99.90;;;;;;5111236;28;20043;-61
2022/04/18 06:24:42;;;;;;;135.48;36.72;;;8.00;99.90;;;;;;5096775;28;20039;-62
2022/04/18 06:27:08;;;;;;;109.93;33.05;;;8.20;99.90;;;;;;5094728;28;20044;-62
2022/04/18 06:29:34;;;;;;;104.70;31.17;;;8.40;99.90;;;;;;5104438;28;20028;-62
2022/04/18 06:32:00;;;;;;;100.53;30.75;;;8.70;99.90;;;;;;5101374;28;20548;-61
2022/04/18 06:34:26;;;;;;;78.25;28.42;;;9.10;99.90;;;;;;5101991;28;20024;-61
2022/04/18 06:36:51;;;;;;;71.93;26.20;;;9.30;99.90;;;;;;5092773;28;20034;-61
2022/04/18 06:39:17;;;;;;;75.88;27.13;;;9.50;99.90;;;;;;5108193;28;20111;-61
2022/04/18 06:41:43;;;;;;;78.53;29.00;;;9.60;99.90;;;;;;5101951;28;20552;-61
2022/04/18 06:44:08;;;;;;;66.68;26.27;;;9.80;99.90;;;;;;5092823;28;20499;-61
2022/04/18 06:46:34;;;;;;;72.63;25.80;;;9.80;99.90;;;;;;5092296;28;20028;-61
2022/04/18 06:49:00;;;;;;;68.88;25.83;;;9.80;99.90;;;;;;5105148;28;20016;-61
2022/04/18 06:51:25;;;;;;;73.15;26.40;;;9.80;99.90;;;;;;5091995;28;20028;-61
2022/04/18 06:53:51;;;;;;;68.35;25.52;;;9.80;99.90;;;;;;5106191;28;20024;-61
2022/04/18 06:59:00;;;;;;;64.82;24.70;;;10.10;99.90;;;;;;5103083;28;20027;-61
2022/04/18 07:01:26;;;;;;;64.15;24.55;;;10.40;99.90;;;;;;5095878;28;20016;-61
2022/04/18 07:03:52;;;;;;;63.63;25.20;;;10.50;99.90;;;;;;5097095;28;20058;-61
2022/04/18 07:06:17;;;;;;;58.67;22.58;;;10.60;99.90;;;;;;5111797;28;20027;-61
2022/04/18 07:08:46;;;;;;;47.53;20.30;;;10.80;99.90;;;;;;5095954;28;20027;-61
2022/04/18 07:11:12;;;;;;;46.92;19.15;;;10.90;99.90;;;;;;5102164;28;20059;-61
2022/04/18 07:13:37;;;;;;;40.65;17.45;;;11.20;99.90;;;;;;5099298;28;20062;-61
2022/04/18 07:16:04;;;;;;;38.40;17.55;;;11.30;99.90;;;;;;5099784;28;20023;-60
2022/04/18 07:18:30;;;;;;;38.90;16.65;;;11.50;99.90;;;;;;5098822;28;20069;-61
2022/04/18 07:20:55;;;;;;;38.50;17.50;;;11.70;99.90;;;;;;5099913;28;20095;-61
2022/04/18 07:23:21;;;;;;;37.17;15.90;;;11.80;99.90;;;;;;5091988;28;20036;-61
2022/04/18 07:25:47;;;;;;;35.58;15.20;;;12.00;99.90;;;;;;5092138;28;20036;-61
2022/04/18 07:28:12;;;;;;;36.33;15.38;;;11.90;99.90;;;;;;5098560;28;20104;-61
2022/04/18 07:30:38;;;;;;;31.35;13.77;;;12.10;99.90;;;;;;5090045;28;20060;-61
2022/04/18 07:33:03;;;;;;;27.65;12.40;;;12.20;99.90;;;;;;5098193;28;20062;-61
2022/04/18 07:35:29;;;;;;;31.02;13.10;;;12.20;99.90;;;;;;5100745;28;20031;-60
2022/04/18 07:40:39;;;;;;;21.75;8.75;;;12.10;99.90;;;;;;5101344;28;20055;-61
2022/04/18 07:43:05;;;;;;;22.23;9.65;;;12.10;99.90;;;;;;5100584;28;20427;-60
2022/04/18 07:45:30;;;;;;;22.55;9.88;;;12.00;99.90;;;;;;5111683;28;20390;-61
2022/04/18 07:47:57;;;;;;;22.13;9.35;;;11.90;99.90;;;;;;5111781;28;20032;-61
2022/04/18 07:51:31;;;;;;;17.40;7.78;;;11.90;99.90;;;;;;5111666;28;20059;-61
2022/04/18 07:53:09;;;;;;;21.45;8.40;;;12.10;99.90;;;;;;5090993;28;20034;-61
2022/04/18 07:55:34;;;;;;;18.25;7.28;;;12.20;99.90;;;;;;5091090;28;20024;-61
2022/04/18 07:58:00;;;;;;;19.13;7.45;;;12.30;99.90;;;;;;5091386;28;20375;-61
2022/04/18 08:00:26;;;;;;;15.48;7.25;;;12.30;99.90;;;;;;5092002;28;20024;-61
2022/04/18 08:02:51;;;;;;;16.98;7.05;;;12.30;99.90;;;;;;5100572;28;20031;-61
2022/04/18 08:05:18;;;;;;;15.25;6.55;;;12.50;99.90;;;;;;5095595;28;20021;-60
2022/04/18 08:07:43;;;;;;;14.18;6.80;;;12.60;99.90;;;;;;5097556;28;20468;-61
2022/04/18 08:10:09;;;;;;;13.90;6.20;;;12.70;99.90;;;;;;5099764;28;20034;-61
2022/04/18 08:12:35;;;;;;;18.40;7.10;;;12.80;99.90;;;;;;5109925;28;20036;-61
2022/04/18 08:15:01;;;;;;;14.98;6.93;;;13.00;99.90;;;;;;5106743;28;20044;-61
2022/04/18 08:17:26;;;;;;;18.02;6.30;;;13.10;99.90;;;;;;5095103;28;20039;-61
2022/04/18 08:19:52;;;;;;;17.88;5.95;;;13.20;99.90;;;;;;5098641;28;20069;-61
2022/04/18 08:22:18;;;;;;;12.77;5.25;;;13.30;99.90;;;;;;5104581;28;20055;-61
2022/04/18 08:24:43;;;;;;;11.73;4.43;;;13.50;99.90;;;;;;5098163;28;20070;-60
2022/04/18 08:27:09;;;;;;;11.68;4.22;;;13.70;98.60;;;;;;5099644;28;20102;-61
2022/04/18 08:29:34;;;;;;;12.35;4.70;;;13.80;98.30;;;;;;5098593;28;20078;-61
2022/04/18 08:32:04;;;;;;;11.45;5.13;;;13.90;97.70;;;;;;5099548;28;20440;-61
2022/04/18 08:34:30;;;;;;;12.63;3.72;;;14.00;97.70;;;;;;5107145;28;20039;-61
2022/04/18 08:36:56;;;;;;;11.68;4.68;;;14.00;95.80;;;;;;5096382;28;20028;-61
2022/04/18 08:39:21;;;;;;;9.82;4.20;;;14.10;97.10;;;;;;5111324;28;20028;-61
2022/04/18 08:41:51;;;;;;;11.88;4.63;;;14.40;96.60;;;;;;5100145;28;20515;-61
2022/04/18 08:44:18;;;;;;;10.02;4.72;;;14.40;96.50;;;;;;5108667;28;20028;-61
2022/04/18 08:46:46;;;;;;;11.05;4.10;;;14.40;96.50;;;;;;5098616;28;20031;-61
2022/04/18 08:54:43;;;;;;;10.38;3.80;;;14.60;94.10;;;;;;5113992;28;20120;-61
2022/04/18 08:57:09;;;;;;;7.75;3.83;;;14.50;94.50;;;;;;5109978;28;20020;-61
2022/04/18 08:59:34;;;;;;;9.80;3.70;;;14.40;95.20;;;;;;5105375;28;20031;-62
2022/04/18 09:02:02;;;;;;;8.05;3.72;;;14.40;95.00;;;;;;5096242;28;20027;-61
2022/04/18 09:04:28;;;;;;;8.75;3.97;;;14.70;93.80;;;;;;5106262;28;20487;-61
2022/04/18 09:06:53;;;;;;;9.52;3.72;;;14.70;95.80;;;;;;5100656;27;20024;-61
2022/04/18 09:09:29;;;;;;;8.13;4.18;;;14.90;92.30;;;;;;5100010;28;20502;-61
2022/04/18 09:11:54;;;;;;;8.82;4.05;;;15.00;93.80;;;;;;5099626;28;20034;-61
2022/04/18 09:14:20;;;;;;;9.48;4.45;;;15.40;94.00;;;;;;5095567;28;20044;-61
2022/04/18 09:16:46;;;;;;;11.73;5.20;;;15.80;93.10;;;;;;5103598;28;20207;-61
2022/04/18 09:19:16;;;;;;;8.85;4.75;;;16.00;91.80;;;;;;5113040;28;20036;-61
2022/04/18 09:22:04;;;;;;;12.90;5.15;;;16.30;91.00;;;;;;5113552;28;20019;-62
2022/04/18 09:24:34;;;;;;;;;;;16.20;92.30;;;;;;5114357;28;20031;-62
2022/04/18 09:27:06;;;;;;;6.45;3.40;;;16.20;91.40;;;;;;5108519;28;19908;-62
2022/04/18 09:29:38;;;;;;;7.47;3.50;;;16.20;85.50;;;;;;5113719;28;20028;-61
2022/04/18 09:32:10;;;;;;;10.15;3.88;;;16.00;87.30;;;;;;5113658;28;20061;-61
2022/04/18 09:34:38;;;;;;;8.27;3.75;;;16.00;88.20;;;;;;5101895;28;20020;-61
2022/04/18 09:37:17;;;;;;;11.27;4.32;;;16.00;86.00;;;;;;5098597;28;20399;-61
2022/04/18 09:39:53;;;;;;;6.18;2.95;;;16.10;88.70;;;;;;5113552;28;20019;-61
2022/04/18 09:42:21;;;;;;;9.07;4.07;;;16.50;81.20;;;;;;5109284;28;20046;-62
2022/04/18 09:44:47;;;;;;;8.38;3.63;;;17.20;82.20;;;;;;5108782;28;20030;-60
2022/04/18 09:47:21;;;;;;;7.80;3.90;;;17.10;84.80;;;;;;5093466;28;20032;-61
2022/04/18 09:49:47;;;;;;;9.57;4.15;;;17.30;83.80;;;;;;5094955;28;20400;-61
2022/04/18 09:52:16;;;;;;;9.73;3.97;;;17.30;81.90;;;;;;5108762;28;20031;-62
2022/04/18 09:54:53;;;;;;;6.38;3.33;;;17.50;81.80;;;;;;5098521;28;20531;-61
2022/04/18 09:57:24;;;;;;;9.93;4.72;;;17.40;84.20;;;;;;5100553;28;20023;-62
2022/04/18 09:59:56;;;;;;;10.52;4.88;;;17.50;81.60;;;;;;5098921;28;20382;-61
2022/04/18 10:02:24;;;;;;;9.70;4.20;;;17.70;81.20;;;;;;5105174;28;20038;-61
2022/04/18 10:04:51;;;;;;;7.90;4.20;;;17.60;82.90;;;;;;5112016;28;20120;-61
2022/04/18 10:07:17;;;;;;;9.82;4.45;;;17.70;85.60;;;;;;5112255;28;20028;-62
2022/04/18 10:09:43;;;;;;;9.70;3.70;;;17.90;78.40;;;;;;5103992;28;20089;-62
2022/04/18 10:12:10;;;;;;;9.95;3.90;;;18.10;81.90;;;;;;5104090;28;20505;-62
2022/04/18 10:14:42;;;;;;;8.57;4.68;;;18.70;79.50;;;;;;5112822;28;20089;-62
2022/04/18 10:17:11;;;;;;;8.18;4.32;;;18.90;75.00;;;;;;5112396;28;20042;-62
2022/04/18 10:19:55;;;;;;;7.43;4.00;;;18.70;71.10;;;;;;5107324;28;20020;-62
2022/04/18 10:22:40;;;;;;;8.70;3.67;;;18.50;78.60;;;;;;5111060;28;20035;-61
2022/04/18 10:25:11;;;;;;;7.63;4.15;;;18.50;74.60;;;;;;5112811;28;20107;-61
2022/04/18 10:27:59;;;;;;;9.00;3.45;;;18.30;69.00;;;;;;5101634;28;20036;-62
2022/04/18 10:30:26;;;;;;;6.18;2.92;;;17.90;70.00;;;;;;5091964;28;20118;-61
2022/04/18 10:32:52;;;;;;;9.27;3.20;;;17.30;81.50;;;;;;5091837;28;20761;-61
2022/04/18 10:35:22;;;;;;;8.85;3.53;;;17.50;73.90;;;;;;5092096;28;20023;-61
2022/04/18 10:37:54;;;;;;;6.75;2.60;;;17.30;72.10;;;;;;5092251;28;20515;-60
2022/04/18 10:40:19;;;;;;;8.50;2.55;;;17.00;70.30;;;;;;5096046;28;20170;-61
2022/04/18 10:42:45;;;;;;;10.35;2.67;;;17.10;72.50;;;;;;5092047;28;20531;-61
2022/04/18 10:45:12;;;;;;;2.95;2.03;;;17.30;75.60;;;;;;5091987;28;20036;-61
2022/04/18 10:47:56;;;;;;;3.55;2.10;;;17.70;74.20;;;;;;5092265;28;20040;-62
2022/04/18 10:50:24;;;;;;;4.68;2.25;;;17.80;72.20;;;;;;5091989;28;20419;-61
2022/04/18 10:53:10;;;;;;;2.85;2.00;;;18.20;71.90;;;;;;5090402;28;20028;-60
2022/04/18 10:56:00;;;;;;;3.40;2.00;;;18.50;67.10;;;;;;5096530;28;20023;-61
2022/04/18 10:58:27;;;;;;;5.28;1.90;;;18.90;65.00;;;;;;5100417;28;20040;-61
2022/04/18 11:00:57;;;;;;;3.05;1.63;;;19.40;59.50;;;;;;5112180;28;20098;-61
2022/04/18 11:03:35;;;;;;;7.00;1.38;;;19.10;62.70;;;;;;5111834;28;20523;-62
2022/04/18 11:06:07;;;;;;;2.55;1.50;;;19.40;57.00;;;;;;5111927;27;20036;-61
2022/04/18 11:08:38;;;;;;;2.28;1.33;;;19.50;55.30;;;;;;5110691;28;20565;-62
2022/04/18 11:11:17;;;;;;;4.35;1.48;;;20.30;59.10;;;;;;5091634;28;20051;-62
2022/04/18 11:13:44;;;;;;;5.43;2.47;;;20.90;56.50;;;;;;5094174;28;20047;-61
2022/04/18 11:16:24;;;;;;;5.97;2.60;;;20.20;51.60;;;;;;5091496;28;20024;-61
2022/04/18 11:19:13;;;;;;;4.63;2.00;;;19.60;49.40;;;;;;5091469;28;20387;-61
2022/04/18 11:24:38;;;;;;;4.40;2.03;;;18.80;52.10;;;;;;5091377;28;20034;-61
2022/04/18 11:27:10;;;;;;;2.47;1.80;;;18.70;51.60;;;;;;5107938;28;20811;-60
2022/04/18 11:29:38;;;;;;;3.60;1.90;;;18.10;53.50;;;;;;5111811;28;20034;-60
2022/04/18 11:32:05;;;;;;;4.40;2.08;;;17.90;55.90;;;;;;5111802;28;20090;-61
2022/04/18 11:34:32;;;;;;;3.20;2.05;;;17.40;58.20;;;;;;5111662;28;20448;-60
2022/04/18 11:36:59;;;;;;;6.57;2.27;;;17.60;59.60;;;;;;5111683;28;20027;-61
2022/04/18 11:39:39;;;;;;;;;;;17.60;59.70;;;;;;5111773;28;20026;-61
2022/04/18 11:42:05;;;;;;;14.13;5.50;;;17.80;71.10;;;;;;5111191;28;20369;-61
2022/04/18 11:44:38;;;;;;;10.63;5.15;;;17.90;82.70;;;;;;5111427;28;20051;-61
2022/04/18 11:47:13;;;;;;;10.38;5.30;;;17.70;85.50;;;;;;5111569;28;20116;-61
2022/04/18 11:49:39;;;;;;;8.27;5.15;;;17.20;84.80;;;;;;5094354;28;20038;-61
2022/04/18 11:52:06;;;;;;;11.55;4.80;;;16.70;87.70;;;;;;5091029;28;20119;-60
2022/04/18 11:54:33;;;;;;;10.90;4.28;;;16.40;90.80;;;;;;5091158;28;20027;-61
2022/04/18 11:56:59;;;;;;;10.75;3.55;;;16.40;90.50;;;;;;5094196;28;20089;-60
2022/04/18 11:59:29;;;;;;;10.45;4.50;;;15.80;91.10;;;;;;5100553;28;20035;-60
2022/04/18 12:07:28;;;;;;;9.00;4.10;;;16.30;92.40;;;;;;5115303;28;20080;-60
2022/04/18 12:09:54;;;;;;;12.02;3.97;;;16.40;90.30;;;;;;5115394;28;20023;-60
2022/04/18 12:12:28;;;;;;;9.95;4.18;;;16.70;91.50;;;;;;5115064;28;20055;-60
2022/04/18 12:14:54;;;;;;;8.75;3.80;;;17.00;88.50;;;;;;5114836;28;20094;-61
2022/04/18 12:17:20;;;;;;;7.53;3.58;;;16.60;90.20;;;;;;5113740;28;20031;-60
2022/04/18 12:19:46;;;;;;;8.23;3.67;;;16.40;86.00;;;;;;5115247;28;20028;-60
2022/04/18 12:22:24;;;;;;;7.60;3.08;;;16.70;91.00;;;;;;5114986;28;20044;-60
2022/04/18 12:24:51;;;;;;;8.60;3.50;;;17.40;88.90;;;;;;5114869;28;20552;-60
2022/04/18 12:27:17;;;;;;;5.57;3.22;;;18.10;85.30;;;;;;5114846;28;20391;-60
2022/04/18 12:29:44;;;;;;;11.88;3.55;;;18.80;78.10;;;;;;5106600;28;20105;-59
2022/04/18 12:32:26;;;;;;;7.88;3.30;;;19.00;77.90;;;;;;5094295;28;20030;-60
2022/04/18 12:34:53;;;;;;;4.70;2.40;;;19.50;79.80;;;;;;5094610;28;20488;-60
2022/04/18 12:37:18;;;;;;;8.68;3.10;;;19.50;70.70;;;;;;5094384;28;20024;-61
2022/04/18 12:39:44;;;;;;;6.60;2.67;;;18.90;79.10;;;;;;5094179;28;20028;-60
2022/04/18 12:42:10;;;;;;;6.63;2.88;;;18.30;74.30;;;;;;5094135;28;20032;-60
2022/04/18 12:44:39;;;;;;;4.60;2.78;;;18.00;79.70;;;;;;5094387;28;20032;-60
2022/04/18 12:47:15;;;;;;;6.00;2.90;;;18.30;78.10;;;;;;5094333;28;20050;-62
2022/04/18 12:50:05;;;;;;;11.18;2.65;;;18.00;79.60;;;;;;5094116;28;20077;-60
2022/04/18 12:52:31;;;;;;;9.68;2.90;;;18.60;73.80;;;;;;5093796;28;20039;-60
2022/04/18 12:55:07;;;;;;;6.10;2.70;;;18.80;73.20;;;;;;5109904;28;20020;-60
2022/04/18 12:57:33;;;;;;;5.90;2.80;;;18.60;72.20;;;;;;5114535;28;20110;-61
2022/04/18 13:00:35;;;;;;;7.97;3.70;;;18.20;70.90;;;;;;5113240;28;20533;-60
2022/04/18 13:03:06;;;;;;;10.98;2.92;;;17.30;78.10;;;;;;5100421;28;20039;-60
2022/04/18 13:05:40;;;;;;;5.97;2.58;;;17.40;76.50;;;;;;5114093;28;20073;-60
2022/04/18 13:08:07;;;;;;;3.65;2.42;;;17.70;74.40;;;;;;5114182;28;20106;-60